East Lempster, New Hampshire
Current Conditions -  °F | °C
As of 2:13 AM on Sunday 26 Oct 2014 (Local Time) from KVSF Reporting Station
Haze Haze  
Wind Chill: 42°   Ceiling: Unl
Heat Index: 42°   Visibility: 2mi
Dew Point: 41°   Wind: 0mph
Humidity: 96%   Direction: NA
Pressure: 29.46"   Gusts: NA
Location:  43.2136°N, 72.1592°W
Report Text: KVSF 260613Z AUTO 00000KT 2SM BR FEW002 SCT070 06/05 A2946 RMK AO2 VIS 1V5 T00560050
Loading
Personal Weather Stations






























Interactive Weather Map
Tropical Storm Tracking
New forecast layout! Learn more

10-Day Weather Forecast

Advertisements
Track Severe Weather on mobile